createdAt,value
2019-05-07T00:02:52.798Z,5.25
2019-05-07T00:05:56.974Z,5.25
2019-05-07T00:09:03.221Z,5.24
2019-05-07T00:12:07.561Z,5.27
2019-05-07T00:15:12.626Z,5.31
2019-05-07T00:18:17.483Z,5.35
2019-05-07T00:21:23.365Z,5.40
2019-05-07T00:24:27.667Z,5.42
2019-05-07T00:27:32.216Z,5.42
2019-05-07T00:30:36.417Z,5.41
2019-05-07T00:33:43.037Z,5.40
2019-05-07T00:37:13.102Z,5.42
2019-05-07T00:40:32.119Z,5.43
2019-05-07T00:43:38.914Z,5.43
2019-05-07T00:46:43.141Z,5.47
2019-05-07T00:49:47.409Z,5.45
2019-05-07T00:52:52.412Z,5.43
2019-05-07T00:55:56.619Z,5.41
2019-05-07T00:59:02.205Z,5.37
2019-05-07T01:02:06.951Z,5.34
2019-05-07T01:05:12.276Z,5.29
2019-05-07T01:08:16.210Z,5.29
2019-05-07T01:11:22.474Z,5.33
2019-05-07T01:14:26.041Z,5.30
2019-05-07T01:17:30.613Z,5.35
2019-05-07T01:20:35.029Z,5.34
2019-05-07T01:23:39.237Z,5.27
2019-05-07T01:26:43.802Z,5.19
2019-05-07T01:29:47.735Z,5.15
2019-05-07T01:33:13.627Z,5.12
2019-05-07T01:36:22.483Z,5.06
2019-05-07T01:39:26.577Z,4.96
2019-05-07T01:42:32.682Z,4.95
2019-05-07T01:45:46.446Z,4.93
2019-05-07T01:48:45.280Z,4.88
2019-05-07T01:51:49.488Z,4.88
2019-05-07T01:54:53.615Z,4.82
2019-05-07T01:57:57.530Z,4.71
2019-05-07T02:01:02.952Z,4.68
2019-05-07T02:04:25.933Z,4.64
2019-05-07T02:07:37.021Z,4.56
2019-05-07T02:10:45.151Z,4.48
2019-05-07T02:13:49.373Z,4.42
2019-05-07T02:16:53.464Z,4.44
2019-05-07T02:19:57.702Z,4.41
2019-05-07T02:23:02.799Z,4.42
2019-05-07T02:26:06.881Z,4.40
2019-05-07T02:29:12.215Z,4.36
2019-05-07T02:32:16.969Z,4.23
2019-05-07T02:35:23.518Z,4.11
2019-05-07T02:38:36.414Z,4.05
2019-05-07T02:41:44.017Z,4.04
2019-05-07T02:45:05.135Z,3.98
2019-05-07T02:48:12.768Z,3.92
2019-05-07T02:51:23.995Z,3.80
2019-05-07T02:54:53.150Z,3.70
2019-05-07T02:57:56.296Z,3.63
2019-05-07T03:01:00.306Z,3.60
2019-05-07T03:04:04.587Z,3.63
2019-05-07T03:07:09.193Z,3.57
2019-05-07T03:10:14.017Z,3.48
2019-05-07T03:13:18.177Z,3.44
2019-05-07T03:16:38.541Z,3.50
2019-05-07T03:19:28.731Z,3.62
2019-05-07T03:22:33.975Z,3.65
2019-05-07T03:25:55.818Z,3.67
2019-05-07T03:29:03.920Z,3.72
2019-05-07T03:32:39.134Z,3.79
2019-05-07T03:35:47.032Z,3.83
2019-05-07T03:38:53.777Z,3.82
2019-05-07T03:41:57.288Z,3.81
2019-05-07T03:45:08.294Z,3.79
2019-05-07T03:48:16.951Z,3.86
2019-05-07T03:51:23.784Z,3.92
2019-05-07T03:54:27.355Z,4.03
2019-05-07T03:57:33.373Z,4.10
2019-05-07T04:00:37.843Z,4.19
2019-05-07T04:03:44.495Z,4.27
2019-05-07T04:06:47.408Z,4.35
2019-05-07T04:09:53.475Z,4.41
2019-05-07T04:12:58.137Z,4.43
2019-05-07T04:16:04.060Z,4.43
2019-05-07T04:19:08.268Z,4.42
2019-05-07T04:22:13.254Z,4.45
2019-05-07T04:25:26.195Z,4.50
2019-05-07T04:28:37.044Z,4.65
2019-05-07T04:31:43.624Z,4.76
2019-05-07T04:34:57.539Z,4.79
2019-05-07T04:38:06.366Z,4.86
2019-05-07T04:41:07.345Z,4.88
2019-05-07T04:44:14.059Z,4.99
2019-05-07T04:47:32.934Z,5.06
2019-05-07T04:50:41.425Z,5.11
2019-05-07T04:53:33.100Z,5.20
2019-05-07T04:56:37.543Z,5.29
2019-05-07T04:59:42.806Z,5.41
2019-05-07T05:02:56.189Z,5.54
2019-05-07T05:06:02.639Z,5.65
2019-05-07T05:09:07.468Z,5.85
2019-05-07T05:12:13.160Z,5.94
2019-05-07T05:15:17.973Z,6.09
2019-05-07T05:18:22.447Z,6.19
2019-05-07T05:21:52.817Z,6.30
2019-05-07T05:25:23.026Z,6.47
2019-05-07T05:28:27.734Z,6.58
2019-05-07T05:31:33.176Z,6.70
2019-05-07T05:34:37.501Z,6.89
2019-05-07T05:37:42.930Z,7.07
2019-05-07T05:40:47.016Z,7.25
2019-05-07T05:43:58.864Z,7.50
2019-05-07T05:47:03.249Z,8.07
2019-05-07T05:50:13.404Z,8.71
2019-05-07T05:53:32.727Z,9.05
2019-05-07T05:56:43.300Z,10.21
2019-05-07T06:00:09.233Z,11.53
2019-05-07T06:03:27.466Z,12.79
2019-05-07T06:06:53.965Z,13.51
2019-05-07T06:10:05.102Z,14.13
2019-05-07T06:13:14.847Z,14.72
2019-05-07T06:16:22.541Z,15.31
2019-05-07T06:19:35.328Z,15.58
2019-05-07T06:23:04.146Z,15.69
2019-05-07T06:26:08.128Z,16.10
2019-05-07T06:29:12.067Z,15.97
2019-05-07T06:32:17.448Z,15.92
2019-05-07T06:35:23.034Z,16.36
2019-05-07T06:38:29.227Z,16.85
2019-05-07T06:41:52.552Z,17.15
2019-05-07T06:45:14.580Z,16.79
2019-05-07T06:48:33.087Z,15.53
2019-05-07T06:51:25.496Z,14.72
2019-05-07T06:54:31.969Z,14.76
2019-05-07T06:57:36.356Z,14.66
2019-05-07T07:01:08.025Z,14.69
2019-05-07T07:04:25.160Z,14.98
2019-05-07T07:07:46.381Z,14.61
2019-05-07T07:11:12.954Z,14.30
2019-05-07T07:14:17.275Z,14.67
2019-05-07T07:17:22.414Z,15.32
2019-05-07T07:20:27.219Z,15.68
2019-05-07T07:23:32.389Z,16.38
2019-05-07T07:26:37.192Z,16.83
2019-05-07T07:29:46.368Z,16.72
2019-05-07T07:32:51.914Z,16.73
2019-05-07T07:35:56.381Z,16.36
2019-05-07T07:39:02.057Z,16.08
2019-05-07T07:42:06.863Z,15.88
2019-05-07T07:45:18.249Z,15.91
2019-05-07T07:48:24.906Z,16.27
2019-05-07T07:51:40.586Z,16.81
2019-05-07T07:54:35.041Z,16.78
2019-05-07T07:57:43.770Z,16.49
2019-05-07T08:01:05.740Z,16.32
2019-05-07T08:04:12.105Z,16.33
2019-05-07T08:07:15.674Z,16.31
2019-05-07T08:10:22.124Z,16.43
2019-05-07T08:13:26.170Z,16.51
2019-05-07T08:16:32.689Z,16.03
2019-05-07T08:19:36.633Z,15.80
2019-05-07T08:22:42.320Z,15.64
2019-05-07T08:25:49.449Z,15.39
2019-05-07T08:28:53.724Z,15.39
2019-05-07T08:32:16.488Z,15.56
2019-05-07T08:35:32.559Z,15.69
2019-05-07T08:38:52.400Z,15.79
2019-05-07T08:41:55.804Z,15.95
2019-05-07T08:45:07.500Z,16.13
2019-05-07T08:48:24.800Z,16.38
2019-05-07T08:51:29.497Z,16.46
2019-05-07T08:54:34.023Z,16.69
2019-05-07T08:57:38.057Z,16.75
2019-05-07T09:00:42.176Z,16.49
2019-05-07T09:03:46.500Z,16.59
2019-05-07T09:06:51.942Z,16.63
2019-05-07T09:09:56.276Z,16.69
2019-05-07T09:13:02.786Z,16.86
2019-05-07T09:16:06.644Z,16.99
2019-05-07T09:19:12.597Z,17.25
2019-05-07T09:22:16.318Z,17.48
2019-05-07T09:25:22.318Z,17.46
2019-05-07T09:28:26.617Z,17.19
2019-05-07T09:31:39.008Z,16.99
2019-05-07T09:34:45.037Z,17.07
2019-05-07T09:37:49.206Z,17.12
2019-05-07T09:40:56.517Z,16.86
2019-05-07T09:43:59.692Z,16.91
2019-05-07T09:47:03.769Z,17.07
2019-05-07T09:50:09.025Z,17.14
2019-05-07T09:53:13.057Z,17.20
2019-05-07T09:56:17.222Z,17.32
2019-05-07T09:59:21.888Z,17.47
2019-05-07T10:02:26.489Z,17.41
2019-05-07T10:05:32.187Z,17.51
2019-05-07T10:08:36.807Z,17.78
2019-05-07T10:11:52.453Z,17.68
2019-05-07T10:14:56.505Z,17.81
2019-05-07T10:18:06.519Z,18.09
2019-05-07T10:21:12.733Z,17.96
2019-05-07T10:24:16.820Z,17.82
2019-05-07T10:27:21.881Z,17.70
2019-05-07T10:30:26.388Z,17.29
2019-05-07T10:33:31.983Z,17.00
2019-05-07T10:36:36.036Z,16.68
2019-05-07T10:39:40.075Z,16.20
2019-05-07T10:42:44.353Z,15.97
2019-05-07T10:46:06.240Z,15.79
2019-05-07T10:49:16.804Z,15.56
2019-05-07T10:52:22.771Z,15.53
2019-05-07T10:55:27.040Z,15.39
2019-05-07T10:58:31.982Z,15.21
2019-05-07T11:01:44.819Z,15.27
2019-05-07T11:04:49.085Z,15.51
2019-05-07T11:07:53.868Z,15.85
2019-05-07T11:10:58.072Z,16.33
2019-05-07T11:14:02.910Z,16.58
2019-05-07T11:17:28.941Z,16.44
2019-05-07T11:20:46.105Z,16.56
2019-05-07T11:23:38.528Z,17.26
2019-05-07T11:26:42.597Z,17.64
2019-05-07T11:29:47.358Z,17.64
2019-05-07T11:32:52.228Z,17.59
2019-05-07T11:35:56.614Z,17.85
2019-05-07T11:39:01.793Z,17.88
2019-05-07T11:42:18.120Z,17.92
2019-05-07T11:45:28.880Z,18.42
2019-05-07T11:48:36.406Z,18.56
2019-05-07T11:51:46.038Z,18.82
2019-05-07T11:54:52.110Z,18.97
2019-05-07T11:57:55.997Z,19.16
2019-05-07T12:01:07.058Z,18.77
2019-05-07T12:04:12.512Z,18.29
2019-05-07T12:07:16.553Z,18.07
2019-05-07T12:10:22.281Z,17.93
2019-05-07T12:13:26.379Z,17.79
2019-05-07T12:16:32.016Z,17.78
2019-05-07T12:19:36.979Z,17.91
2019-05-07T12:22:47.255Z,18.24
2019-05-07T12:25:52.893Z,18.54
2019-05-07T12:28:57.232Z,18.40
2019-05-07T12:32:13.202Z,18.18
2019-05-07T12:35:18.460Z,17.61
2019-05-07T12:38:23.096Z,17.69
2019-05-07T12:41:33.249Z,18.01
2019-05-07T12:44:37.167Z,18.28
2019-05-07T12:47:42.183Z,18.27
2019-05-07T12:50:46.603Z,18.03
2019-05-07T12:53:55.987Z,18.38
2019-05-07T12:57:02.374Z,18.80
2019-05-07T13:00:24.852Z,19.22
2019-05-07T13:03:53.884Z,18.68
2019-05-07T13:07:08.541Z,18.57
2019-05-07T13:10:12.864Z,18.46
2019-05-07T13:13:16.965Z,18.38
2019-05-07T13:16:22.070Z,18.16
2019-05-07T13:19:26.824Z,18.07
2019-05-07T13:22:32.557Z,18.25
2019-05-07T13:25:36.877Z,18.44
2019-05-07T13:28:42.033Z,18.62
2019-05-07T13:31:48.868Z,18.66
2019-05-07T13:34:54.813Z,18.39
2019-05-07T13:38:16.362Z,18.42
2019-05-07T13:41:57.771Z,18.41
2019-05-07T13:45:22.327Z,18.50
2019-05-07T13:48:26.557Z,18.58
2019-05-07T13:51:33.574Z,18.70
2019-05-07T13:54:37.129Z,18.82
2019-05-07T13:57:41.727Z,18.95
2019-05-07T14:01:23.255Z,19.29
2019-05-07T14:04:27.275Z,19.35
2019-05-07T14:07:34.034Z,19.38
2019-05-07T14:10:38.387Z,19.14
2019-05-07T14:13:43.588Z,19.14
2019-05-07T14:16:48.062Z,18.98
2019-05-07T14:19:53.029Z,18.81
2019-05-07T14:22:57.524Z,18.74
2019-05-07T14:26:02.066Z,18.53
2019-05-07T14:29:06.541Z,18.69
2019-05-07T14:32:18.118Z,18.68
2019-05-07T14:35:38.000Z,18.82
2019-05-07T14:38:44.336Z,18.89
2019-05-07T14:41:52.074Z,18.98
2019-05-07T14:44:56.106Z,18.61
2019-05-07T14:48:00.093Z,18.44
2019-05-07T14:51:04.305Z,18.24
2019-05-07T14:54:08.361Z,18.34
2019-05-07T14:57:12.416Z,18.57
2019-05-07T15:00:16.881Z,18.81
2019-05-07T15:03:22.780Z,18.90
2019-05-07T15:06:27.041Z,19.02
2019-05-07T15:09:31.777Z,19.11
2019-05-07T15:12:35.804Z,18.96
2019-05-07T15:15:39.988Z,18.77
2019-05-07T15:18:52.944Z,18.66
2019-05-07T15:22:16.709Z,18.54
2019-05-07T15:25:22.682Z,18.21
2019-05-07T15:28:27.618Z,18.21
2019-05-07T15:31:51.629Z,18.23
2019-05-07T15:34:55.780Z,18.05
2019-05-07T15:37:59.950Z,18.43
2019-05-07T15:41:04.439Z,18.08
2019-05-07T15:44:08.364Z,17.93
2019-05-07T15:47:17.830Z,17.69
2019-05-07T15:50:23.733Z,17.54
2019-05-07T15:53:42.719Z,17.41
2019-05-07T15:56:47.377Z,17.46
2019-05-07T15:59:53.365Z,17.62
2019-05-07T16:03:08.314Z,17.72
2019-05-07T16:06:12.975Z,17.78
2019-05-07T16:09:17.869Z,17.76
2019-05-07T16:12:22.825Z,17.72
2019-05-07T16:15:26.816Z,17.69
2019-05-07T16:18:39.527Z,17.53
2019-05-07T16:21:43.747Z,17.56
2019-05-07T16:24:48.233Z,17.51
2019-05-07T16:27:52.802Z,17.36
2019-05-07T16:30:57.237Z,17.23
2019-05-07T16:34:02.570Z,17.05
2019-05-07T16:37:07.621Z,16.98
2019-05-07T16:40:12.867Z,16.95
2019-05-07T16:43:17.025Z,16.96
2019-05-07T16:46:22.349Z,16.82
2019-05-07T16:49:26.754Z,16.61
2019-05-07T16:52:34.728Z,16.49
2019-05-07T16:55:37.303Z,16.27
2019-05-07T16:58:48.356Z,16.14
2019-05-07T17:01:52.535Z,15.93
2019-05-07T17:05:12.326Z,15.82
2019-05-07T17:08:32.727Z,15.84
2019-05-07T17:11:37.007Z,15.95
2019-05-07T17:14:42.590Z,16.07
2019-05-07T17:17:46.847Z,16.19
2019-05-07T17:20:52.262Z,16.29
2019-05-07T17:23:56.896Z,16.36
2019-05-07T17:27:02.318Z,16.26
2019-05-07T17:30:06.736Z,16.16
2019-05-07T17:33:12.639Z,15.99
2019-05-07T17:36:16.467Z,15.82
2019-05-07T17:39:22.534Z,15.55
2019-05-07T17:42:25.946Z,15.33
2019-05-07T17:45:32.229Z,15.17
2019-05-07T17:48:36.669Z,15.04
2019-05-07T17:51:44.408Z,14.81
2019-05-07T17:54:48.422Z,14.67
2019-05-07T17:57:53.106Z,14.48
2019-05-07T18:00:58.660Z,14.35
2019-05-07T18:04:03.069Z,14.19
2019-05-07T18:07:07.673Z,14.05
2019-05-07T18:10:12.542Z,13.95
2019-05-07T18:13:17.372Z,13.85
2019-05-07T18:16:49.307Z,13.74
2019-05-07T18:19:53.245Z,13.62
2019-05-07T18:22:57.832Z,13.44
2019-05-07T18:26:02.120Z,13.27
2019-05-07T18:29:06.463Z,13.16
2019-05-07T18:32:12.447Z,13.09
2019-05-07T18:35:16.562Z,12.94
2019-05-07T18:38:22.384Z,12.84
2019-05-07T18:41:26.567Z,12.71
2019-05-07T18:44:31.269Z,12.63
2019-05-07T18:47:35.608Z,12.51
2019-05-07T18:50:41.807Z,12.39
2019-05-07T18:53:45.406Z,12.26
2019-05-07T18:56:49.689Z,12.16
2019-05-07T18:59:54.016Z,12.08
2019-05-07T19:02:58.501Z,12.02
2019-05-07T19:06:02.914Z,11.96
2019-05-07T19:09:08.729Z,11.89
2019-05-07T19:12:14.505Z,11.84
2019-05-07T19:15:18.880Z,11.74
2019-05-07T19:18:23.130Z,11.67
2019-05-07T19:21:27.553Z,11.61
2019-05-07T19:24:44.596Z,11.50
2019-05-07T19:27:38.418Z,11.43
2019-05-07T19:30:42.525Z,11.38
2019-05-07T19:33:46.534Z,11.31
2019-05-07T19:36:52.048Z,11.20
2019-05-07T19:39:56.763Z,11.11
2019-05-07T19:43:02.982Z,11.00
2019-05-07T19:46:07.594Z,10.90
2019-05-07T19:49:12.304Z,10.83
2019-05-07T19:52:16.478Z,10.75
2019-05-07T19:55:21.969Z,10.65
2019-05-07T19:58:26.029Z,10.60
2019-05-07T20:01:35.541Z,10.53
2019-05-07T20:04:40.019Z,10.51
2019-05-07T20:07:44.545Z,10.46
2019-05-07T20:10:54.481Z,10.38
2019-05-07T20:13:58.709Z,10.32
2019-05-07T20:17:03.693Z,10.30
2019-05-07T20:20:08.470Z,10.31
2019-05-07T20:23:12.476Z,10.31
2019-05-07T20:26:16.692Z,10.26
2019-05-07T20:29:22.895Z,10.20
2019-05-07T20:32:27.488Z,10.10
2019-05-07T20:35:32.535Z,10.08
2019-05-07T20:38:37.628Z,10.11
2019-05-07T20:41:42.867Z,10.14
2019-05-07T20:44:47.630Z,10.19
2019-05-07T20:47:52.807Z,10.17
2019-05-07T20:50:56.787Z,10.18
2019-05-07T20:54:12.682Z,10.22
2019-05-07T20:57:38.585Z,10.17
2019-05-07T21:00:43.375Z,10.09
2019-05-07T21:03:47.700Z,9.99
2019-05-07T21:06:52.554Z,9.96
2019-05-07T21:09:57.119Z,9.87
2019-05-07T21:13:01.017Z,9.73
2019-05-07T21:16:05.337Z,9.64
2019-05-07T21:19:09.664Z,9.58
2019-05-07T21:22:13.508Z,9.54
2019-05-07T21:25:17.606Z,9.43
2019-05-07T21:28:21.626Z,9.24
2019-05-07T21:31:25.545Z,9.14
2019-05-07T21:34:31.625Z,9.07
2019-05-07T21:37:35.371Z,9.02
2019-05-07T21:40:39.231Z,8.95
2019-05-07T21:43:46.078Z,8.84
2019-05-07T21:46:51.723Z,8.72
2019-05-07T21:49:55.351Z,8.63
2019-05-07T21:53:03.627Z,8.59
2019-05-07T21:56:16.108Z,8.63
2019-05-07T21:59:22.254Z,8.61
2019-05-07T22:02:26.863Z,8.60
2019-05-07T22:05:31.024Z,8.53
2019-05-07T22:08:35.098Z,8.50
2019-05-07T22:11:39.096Z,8.46
2019-05-07T22:14:42.939Z,8.39
2019-05-07T22:17:47.257Z,8.34
2019-05-07T22:20:52.244Z,8.28
2019-05-07T22:23:56.277Z,8.22
2019-05-07T22:27:01.726Z,8.16
2019-05-07T22:30:07.943Z,8.07
2019-05-07T22:33:18.992Z,8.02
2019-05-07T22:36:23.139Z,7.99
2019-05-07T22:39:27.298Z,8.00
2019-05-07T22:42:32.741Z,7.98
2019-05-07T22:45:37.320Z,8.00
2019-05-07T22:48:41.960Z,8.03
2019-05-07T22:51:46.273Z,8.03
2019-05-07T22:54:50.274Z,8.03
2019-05-07T22:58:02.419Z,8.00
2019-05-07T23:01:09.142Z,7.92
2019-05-07T23:04:13.385Z,7.81
2019-05-07T23:07:17.294Z,7.73
2019-05-07T23:10:22.566Z,7.67
2019-05-07T23:13:26.738Z,7.57
2019-05-07T23:16:32.444Z,7.51
2019-05-07T23:19:36.899Z,7.44
2019-05-07T23:22:42.841Z,7.36
2019-05-07T23:25:46.954Z,7.34
2019-05-07T23:28:51.865Z,7.29
2019-05-07T23:31:56.329Z,7.24
2019-05-07T23:35:01.903Z,7.20
2019-05-07T23:38:05.966Z,7.19
2019-05-07T23:41:29.162Z,7.15
2019-05-07T23:44:33.446Z,7.11
2019-05-07T23:47:37.392Z,7.14
2019-05-07T23:50:41.882Z,7.19
2019-05-07T23:53:46.518Z,7.12
2019-05-07T23:57:02.938Z,7.10
2019-05-07T23:59:56.624Z,7.22
